createdAt,value
2022-11-17T00:00:43.845Z,18.23
2022-11-17T00:03:51.446Z,14.90
2022-11-17T00:06:54.571Z,11.77
2022-11-17T00:09:57.997Z,14.07
2022-11-17T00:13:19.108Z,13.30
2022-11-17T00:16:23.060Z,15.65
2022-11-17T00:19:45.476Z,11.13
2022-11-17T00:22:48.921Z,10.50
2022-11-17T00:25:53.151Z,10.02
2022-11-17T00:43:58.906Z,19.67
2022-11-17T00:47:02.599Z,19.70
2022-11-17T00:50:06.755Z,27.23
2022-11-17T00:53:10.840Z,27.85
2022-11-17T00:56:13.999Z,20.80
2022-11-17T00:59:18.927Z,31.90
2022-11-17T01:02:23.034Z,25.83
2022-11-17T01:05:32.708Z,25.52
2022-11-17T01:08:36.408Z,23.77
2022-11-17T01:11:39.879Z,23.63
2022-11-17T01:14:42.875Z,18.73
2022-11-17T01:17:46.529Z,19.00
2022-11-17T01:20:49.474Z,21.33
2022-11-17T01:23:54.973Z,18.23
2022-11-17T01:26:58.706Z,23.60
2022-11-17T01:30:01.969Z,32.17
2022-11-17T01:33:05.617Z,32.30
2022-11-17T01:36:13.682Z,34.22
2022-11-17T01:39:17.318Z,27.40
2022-11-17T01:42:25.359Z,28.67
2022-11-17T01:45:28.969Z,24.10
2022-11-17T01:48:33.090Z,21.08
2022-11-17T01:51:39.972Z,22.92
2022-11-17T01:54:47.854Z,20.45
2022-11-17T01:57:56.074Z,14.80
2022-11-17T02:01:00.349Z,19.45
2022-11-17T02:04:06.030Z,16.15
2022-11-17T02:07:12.920Z,17.33
2022-11-17T02:10:16.877Z,16.70
2022-11-17T02:13:22.529Z,16.77
2022-11-17T02:16:26.124Z,13.38
2022-11-17T02:19:36.535Z,15.73
2022-11-17T02:23:16.291Z,14.80
2022-11-17T02:26:26.444Z,15.02
2022-11-17T02:29:44.213Z,21.60
2022-11-17T02:32:54.391Z,15.40
2022-11-17T02:36:04.259Z,17.17
2022-11-17T02:39:25.460Z,14.27
2022-11-17T02:42:55.618Z,16.40
2022-11-17T02:46:10.437Z,12.60
2022-11-17T02:49:38.534Z,14.75
2022-11-17T02:52:42.480Z,17.25
2022-11-17T02:55:54.095Z,9.20
2022-11-17T02:59:01.589Z,9.65
2022-11-17T03:02:22.029Z,5.73
2022-11-17T03:05:57.560Z,7.78
2022-11-17T03:09:09.061Z,6.03
2022-11-17T03:12:34.770Z,5.30
2022-11-17T03:16:13.729Z,6.63
2022-11-17T03:19:27.485Z,4.97
2022-11-17T03:22:59.295Z,4.88
2022-11-17T03:26:06.502Z,8.85
2022-11-17T03:29:14.616Z,6.25
2022-11-17T03:32:19.605Z,8.27
2022-11-17T03:35:28.440Z,7.83
2022-11-17T03:38:38.482Z,7.20
2022-11-17T03:41:46.943Z,13.07
2022-11-17T03:44:56.249Z,16.65
2022-11-17T03:48:26.022Z,9.52
2022-11-17T03:51:31.868Z,7.13
2022-11-17T03:54:37.925Z,6.05
2022-11-17T03:57:41.711Z,10.07
2022-11-17T04:00:46.623Z,6.78
2022-11-17T04:03:50.359Z,6.97
2022-11-17T04:06:54.055Z,6.73
2022-11-17T04:09:57.179Z,4.80
2022-11-17T04:13:19.367Z,3.92
2022-11-17T04:16:23.383Z,5.45
2022-11-17T04:19:27.035Z,5.53
2022-11-17T04:22:30.695Z,3.70
2022-11-17T04:25:56.963Z,4.05
2022-11-17T04:29:00.911Z,4.53
2022-11-17T04:32:04.706Z,3.65
2022-11-17T04:35:08.965Z,6.25
2022-11-17T04:38:12.980Z,8.03
2022-11-17T04:41:35.891Z,5.78
2022-11-17T04:44:38.933Z,6.25
2022-11-17T04:47:43.326Z,4.90
2022-11-17T04:50:46.320Z,5.63
2022-11-17T04:53:50.201Z,6.50
2022-11-17T04:56:55.308Z,6.80
2022-11-17T04:59:59.342Z,6.05
2022-11-17T05:03:02.382Z,7.20
2022-11-17T05:06:05.808Z,8.85
2022-11-17T05:09:11.688Z,5.30
2022-11-17T05:12:34.237Z,5.93
2022-11-17T05:15:55.451Z,7.13
2022-11-17T05:18:58.833Z,9.30
2022-11-17T05:22:02.894Z,7.47
2022-11-17T05:25:08.809Z,5.33
2022-11-17T05:28:11.835Z,6.57
2022-11-17T05:31:15.376Z,4.43
2022-11-17T05:34:19.284Z,4.10
2022-11-17T05:37:25.049Z,4.35
2022-11-17T05:40:28.704Z,5.07
2022-11-17T05:43:31.775Z,6.38
2022-11-17T05:46:35.556Z,7.88
2022-11-17T05:49:38.853Z,9.90
2022-11-17T05:52:41.952Z,10.85
2022-11-17T05:55:45.674Z,7.60
2022-11-17T05:58:54.247Z,9.80
2022-11-17T06:02:01.840Z,8.20
2022-11-17T06:05:06.219Z,7.22
2022-11-17T06:08:10.198Z,7.13
2022-11-17T06:11:14.746Z,4.53
2022-11-17T06:14:18.039Z,6.25
2022-11-17T06:17:36.155Z,7.60
2022-11-17T06:20:44.436Z,4.18
2022-11-17T06:23:48.970Z,4.70
2022-11-17T06:26:51.969Z,5.00
2022-11-17T06:29:57.151Z,4.22
2022-11-17T06:33:01.499Z,5.28
2022-11-17T06:36:08.278Z,7.85
2022-11-17T06:39:11.901Z,10.77
2022-11-17T06:42:15.321Z,21.20
2022-11-17T06:45:18.362Z,20.00
2022-11-17T06:48:28.069Z,22.67
2022-11-17T06:51:31.295Z,21.42
2022-11-17T06:54:34.535Z,12.07
2022-11-17T06:57:37.538Z,14.43
2022-11-17T07:00:41.317Z,16.67
2022-11-17T07:03:45.123Z,14.38
2022-11-17T07:06:48.794Z,11.88
2022-11-17T07:09:52.291Z,9.65
2022-11-17T07:12:55.504Z,9.80
2022-11-17T07:16:07.758Z,8.57
2022-11-17T07:19:12.314Z,13.60
2022-11-17T07:22:15.497Z,11.68
2022-11-17T07:25:22.404Z,9.48
2022-11-17T07:28:26.268Z,13.57
2022-11-17T07:31:29.834Z,7.72
2022-11-17T07:34:32.826Z,10.10
2022-11-17T07:37:36.614Z,20.27
2022-11-17T07:40:39.660Z,18.27
2022-11-17T07:43:43.689Z,23.53
2022-11-17T07:46:46.566Z,24.67
2022-11-17T07:49:50.507Z,65.20
2022-11-17T07:52:55.302Z,26.02
2022-11-17T07:56:02.675Z,14.95
2022-11-17T07:59:06.012Z,15.93
2022-11-17T08:02:10.551Z,26.38
2022-11-17T08:05:13.752Z,77.05
2022-11-17T08:08:18.458Z,16.40
2022-11-17T08:11:22.039Z,12.20
2022-11-17T08:14:25.048Z,16.30
2022-11-17T08:17:30.297Z,27.27
2022-11-17T08:20:33.405Z,28.08
2022-11-17T08:23:38.377Z,19.10
2022-11-17T08:26:42.005Z,20.27
2022-11-17T08:29:46.043Z,22.07
2022-11-17T08:32:50.588Z,15.20
2022-11-17T08:35:53.922Z,22.83
2022-11-17T08:38:56.886Z,15.50
2022-11-17T08:41:59.892Z,24.27
2022-11-17T08:45:03.501Z,20.93
2022-11-17T08:48:08.450Z,13.73
2022-11-17T08:51:14.472Z,15.73
2022-11-17T08:54:18.412Z,13.90
2022-11-17T08:57:23.082Z,15.07
2022-11-17T09:00:26.751Z,110.10
2022-11-17T09:03:30.115Z,21.38
2022-11-17T09:06:33.105Z,34.53
2022-11-17T09:09:37.132Z,22.80
2022-11-17T09:12:40.260Z,28.02
2022-11-17T09:15:44.285Z,19.97
2022-11-17T09:18:47.200Z,26.23
2022-11-17T09:21:50.120Z,25.23
2022-11-17T09:24:54.261Z,21.55
2022-11-17T09:27:57.819Z,28.08
2022-11-17T09:31:10.727Z,27.90
2022-11-17T09:34:14.359Z,23.83
2022-11-17T09:37:17.341Z,27.45
2022-11-17T09:40:21.551Z,28.05
2022-11-17T09:43:38.237Z,22.80
2022-11-17T09:46:41.150Z,22.97
2022-11-17T09:50:00.033Z,25.77
2022-11-17T09:53:13.766Z,20.48
2022-11-17T09:56:17.814Z,21.42
2022-11-17T09:59:24.878Z,19.17
2022-11-17T10:02:28.247Z,16.87
2022-11-17T10:05:34.985Z,16.88
2022-11-17T10:08:59.420Z,18.50
2022-11-17T10:12:34.244Z,23.73
2022-11-17T10:15:49.654Z,18.10
2022-11-17T10:18:52.555Z,14.73
2022-11-17T10:22:34.428Z,24.27
2022-11-17T10:25:38.895Z,21.63
2022-11-17T10:28:42.285Z,18.75
2022-11-17T10:31:47.187Z,17.75
2022-11-17T10:34:52.662Z,20.30
2022-11-17T10:38:03.691Z,16.00
2022-11-17T10:41:07.388Z,17.70
2022-11-17T10:44:13.005Z,15.27
2022-11-17T10:47:46.433Z,21.70
2022-11-17T10:51:20.143Z,24.27
2022-11-17T10:54:24.457Z,19.13
2022-11-17T10:57:28.211Z,29.42
2022-11-17T11:00:36.692Z,23.17
2022-11-17T11:03:50.054Z,27.00
2022-11-17T11:07:15.598Z,25.53
2022-11-17T11:10:27.722Z,22.67
2022-11-17T11:13:41.403Z,23.40
2022-11-17T11:16:48.321Z,19.27
2022-11-17T11:19:54.021Z,23.30
2022-11-17T11:23:15.124Z,22.60
2022-11-17T11:26:37.302Z,20.35
2022-11-17T11:29:55.685Z,20.52
2022-11-17T11:33:07.769Z,20.17
2022-11-17T11:36:37.593Z,24.83
2022-11-17T11:39:47.506Z,33.87
2022-11-17T11:43:26.566Z,31.80
2022-11-17T11:47:00.671Z,34.78
2022-11-17T11:50:26.664Z,59.28
2022-11-17T11:53:59.753Z,62.45
2022-11-17T11:57:03.896Z,41.80
2022-11-17T12:00:16.016Z,38.88
2022-11-17T12:03:40.676Z,34.92
2022-11-17T12:06:54.409Z,35.78
2022-11-17T12:09:58.155Z,39.40
2022-11-17T12:13:04.474Z,35.27
2022-11-17T12:16:27.893Z,34.42
2022-11-17T12:19:49.557Z,28.17
2022-11-17T12:23:21.417Z,37.75
2022-11-17T12:26:30.904Z,34.47
2022-11-17T12:29:46.716Z,37.67
2022-11-17T12:32:50.433Z,43.92
2022-11-17T12:36:29.721Z,42.45
2022-11-17T12:39:53.164Z,44.40
2022-11-17T12:43:20.422Z,42.85
2022-11-17T12:46:28.068Z,56.77
2022-11-17T12:50:04.040Z,49.15
2022-11-17T12:53:13.853Z,48.72
2022-11-17T12:56:54.878Z,47.30
2022-11-17T13:00:08.115Z,44.42
2022-11-17T13:03:23.404Z,45.63
2022-11-17T13:06:41.793Z,41.53
2022-11-17T13:09:45.142Z,35.20
2022-11-17T13:12:48.751Z,32.55
2022-11-17T13:15:59.644Z,42.58
2022-11-17T13:19:03.617Z,46.80
2022-11-17T13:22:14.297Z,56.25
2022-11-17T13:25:24.880Z,45.55
2022-11-17T13:28:33.015Z,48.80
2022-11-17T13:31:37.292Z,37.33
2022-11-17T13:34:52.209Z,40.60
2022-11-17T13:38:19.839Z,62.38
2022-11-17T13:41:28.556Z,53.55
2022-11-17T13:44:33.251Z,48.95
2022-11-17T13:47:37.059Z,48.72
2022-11-17T13:50:40.490Z,52.30
2022-11-17T13:53:46.464Z,71.93
2022-11-17T13:56:53.598Z,70.05
2022-11-17T13:59:58.124Z,59.15
2022-11-17T14:03:04.824Z,59.72
2022-11-17T14:06:13.147Z,64.03
2022-11-17T14:09:20.045Z,52.70
2022-11-17T14:12:23.360Z,41.05
2022-11-17T14:15:30.029Z,36.60
2022-11-17T14:18:38.326Z,43.13
2022-11-17T14:21:59.936Z,49.60
2022-11-17T14:25:02.869Z,38.05
2022-11-17T14:28:06.460Z,48.70
2022-11-17T14:31:14.312Z,53.33
2022-11-17T14:34:17.666Z,51.15
2022-11-17T14:37:21.493Z,44.27
2022-11-17T14:40:25.132Z,57.33
2022-11-17T14:43:28.187Z,57.30
2022-11-17T14:46:33.096Z,55.88
2022-11-17T14:49:36.869Z,49.17
2022-11-17T14:52:42.899Z,49.20
2022-11-17T14:55:46.308Z,51.60
2022-11-17T14:58:55.024Z,66.50
2022-11-17T15:01:58.279Z,64.20
2022-11-17T15:05:01.644Z,33.03
2022-11-17T15:08:05.562Z,38.57
2022-11-17T15:11:16.203Z,38.65
2022-11-17T15:14:19.776Z,39.15
2022-11-17T15:17:24.286Z,42.75
2022-11-17T15:20:30.065Z,49.75
2022-11-17T15:23:34.538Z,71.20
2022-11-17T15:26:38.395Z,65.00
2022-11-17T15:29:42.482Z,109.07
2022-11-17T15:32:45.581Z,112.40
2022-11-17T15:35:48.678Z,120.85
2022-11-17T15:38:53.825Z,91.07
2022-11-17T15:41:57.582Z,67.93
2022-11-17T15:45:01.683Z,73.53
2022-11-17T15:48:05.224Z,70.53
2022-11-17T15:51:10.533Z,77.80
2022-11-17T15:54:20.047Z,49.93
2022-11-17T15:57:24.196Z,33.15
2022-11-17T16:00:27.150Z,23.95
2022-11-17T16:03:30.392Z,23.80
2022-11-17T16:06:36.540Z,23.52
2022-11-17T16:09:39.862Z,44.93
2022-11-17T16:12:43.006Z,96.53
2022-11-17T16:15:49.379Z,129.77
2022-11-17T16:18:52.711Z,209.43
2022-11-17T16:21:56.461Z,224.55
2022-11-17T16:25:00.066Z,246.57
2022-11-17T16:28:03.804Z,267.52
2022-11-17T16:31:15.330Z,260.65
2022-11-17T16:34:19.550Z,245.02
2022-11-17T16:37:23.452Z,274.38
2022-11-17T16:40:26.783Z,247.90
2022-11-17T16:43:30.666Z,227.52
2022-11-17T16:46:33.831Z,217.98
2022-11-17T16:49:38.753Z,231.50
2022-11-17T16:52:41.671Z,215.60
2022-11-17T16:55:44.691Z,202.97
2022-11-17T16:58:52.113Z,205.20
2022-11-17T17:01:55.123Z,153.88
2022-11-17T17:04:58.097Z,144.02
2022-11-17T17:08:01.771Z,104.28
2022-11-17T17:11:10.894Z,97.97
2022-11-17T17:14:15.872Z,100.20
2022-11-17T17:17:19.322Z,111.43
2022-11-17T17:20:23.051Z,100.35
2022-11-17T17:23:28.236Z,96.60
2022-11-17T17:26:33.614Z,98.20
2022-11-17T17:29:36.506Z,105.32
2022-11-17T17:32:39.484Z,101.03
2022-11-17T17:35:42.506Z,100.88
2022-11-17T17:38:50.154Z,109.15
2022-11-17T17:41:57.129Z,79.70
2022-11-17T17:45:01.139Z,90.57
2022-11-17T17:48:06.181Z,99.32
2022-11-17T17:51:20.875Z,84.53
2022-11-17T17:54:25.736Z,84.68
2022-11-17T17:57:32.715Z,74.07
2022-11-17T18:00:37.334Z,61.47
2022-11-17T18:03:40.920Z,72.25
2022-11-17T18:06:48.431Z,75.53
2022-11-17T18:09:52.130Z,68.38
2022-11-17T18:12:56.055Z,74.43
2022-11-17T18:16:00.497Z,73.28
2022-11-17T18:19:06.783Z,70.28
2022-11-17T18:22:10.215Z,68.97
2022-11-17T18:25:17.799Z,61.80
2022-11-17T18:28:21.727Z,56.97
2022-11-17T18:31:27.105Z,53.72
2022-11-17T18:34:30.428Z,50.67
2022-11-17T18:37:33.505Z,55.38
2022-11-17T18:40:37.491Z,70.25
2022-11-17T18:43:42.401Z,118.80
2022-11-17T18:46:46.073Z,218.15
2022-11-17T18:49:49.311Z,97.15
2022-11-17T18:52:53.099Z,167.98
2022-11-17T18:56:04.755Z,151.80
2022-11-17T18:59:12.401Z,86.53
2022-11-17T19:02:15.467Z,51.03
2022-11-17T19:05:18.495Z,44.60
2022-11-17T19:08:21.555Z,83.15
2022-11-17T19:11:24.661Z,55.15
2022-11-17T19:14:28.440Z,54.53
2022-11-17T19:17:31.746Z,56.30
2022-11-17T19:20:35.535Z,58.70
2022-11-17T19:23:48.020Z,34.88
2022-11-17T19:26:54.704Z,36.45
2022-11-17T19:29:57.651Z,48.33
2022-11-17T19:33:00.994Z,48.90
2022-11-17T19:36:11.583Z,64.78
2022-11-17T19:39:15.270Z,50.28
2022-11-17T19:42:19.990Z,53.83
2022-11-17T19:45:24.827Z,50.20
2022-11-17T19:48:28.682Z,44.10
2022-11-17T19:51:34.134Z,46.90
2022-11-17T19:54:37.130Z,51.03
2022-11-17T19:57:40.045Z,57.63
2022-11-17T20:00:45.744Z,71.93
2022-11-17T20:03:49.819Z,68.07
2022-11-17T20:06:52.824Z,52.70
2022-11-17T20:09:56.521Z,69.15
2022-11-17T20:13:01.057Z,52.08
2022-11-17T20:16:11.706Z,34.97
2022-11-17T20:19:16.182Z,33.33
2022-11-17T20:22:19.811Z,31.45
2022-11-17T20:25:22.755Z,24.02
2022-11-17T20:28:25.800Z,27.35
2022-11-17T20:31:32.821Z,24.37
2022-11-17T20:34:36.578Z,31.80
2022-11-17T20:37:39.893Z,29.48
2022-11-17T20:40:42.822Z,27.33
2022-11-17T20:43:49.587Z,35.92
2022-11-17T20:46:55.489Z,33.30
2022-11-17T20:49:58.821Z,34.33
2022-11-17T20:53:01.756Z,31.58
2022-11-17T20:56:07.507Z,23.95
2022-11-17T20:59:13.227Z,21.38
2022-11-17T21:02:19.235Z,27.50
2022-11-17T21:05:22.672Z,20.85
2022-11-17T21:08:31.376Z,21.75
2022-11-17T21:11:53.965Z,17.77
2022-11-17T21:14:56.806Z,12.85
2022-11-17T21:18:18.600Z,14.87
2022-11-17T21:21:22.797Z,20.38
2022-11-17T21:24:28.263Z,17.20
2022-11-17T21:27:31.682Z,9.93
2022-11-17T21:30:35.429Z,14.55
2022-11-17T21:33:40.042Z,18.27
2022-11-17T21:36:43.612Z,18.73
2022-11-17T21:39:47.688Z,18.48
2022-11-17T21:42:50.990Z,15.90
2022-11-17T21:45:54.788Z,15.80
2022-11-17T21:48:59.833Z,12.83
2022-11-17T21:52:02.970Z,15.55
2022-11-17T21:55:06.871Z,15.95
2022-11-17T21:58:10.549Z,14.82
2022-11-17T22:01:16.648Z,15.90
2022-11-17T22:04:20.480Z,18.23
2022-11-17T22:07:24.966Z,37.03
2022-11-17T22:10:28.128Z,34.72
2022-11-17T22:13:31.568Z,41.95
2022-11-17T22:16:36.739Z,46.92
2022-11-17T22:19:40.574Z,47.87
2022-11-17T22:22:43.650Z,45.47
2022-11-17T22:25:57.627Z,45.35
2022-11-17T22:29:00.734Z,41.28
2022-11-17T22:32:04.041Z,38.85
2022-11-17T22:35:07.730Z,41.63
2022-11-17T22:38:15.254Z,44.30
2022-11-17T22:41:21.177Z,45.42
2022-11-17T22:44:24.828Z,40.75
2022-11-17T22:47:27.828Z,45.10
2022-11-17T22:50:31.838Z,44.30
2022-11-17T22:53:35.821Z,46.63
2022-11-17T22:56:40.022Z,43.83
2022-11-17T22:59:43.939Z,60.53
2022-11-17T23:02:47.898Z,39.45
2022-11-17T23:05:51.393Z,30.80
2022-11-17T23:08:55.755Z,32.30
2022-11-17T23:11:59.054Z,31.13
2022-11-17T23:15:02.147Z,30.80
2022-11-17T23:18:06.352Z,29.75
2022-11-17T23:21:10.875Z,22.43
2022-11-17T23:24:15.207Z,27.55
2022-11-17T23:27:18.202Z,27.95
2022-11-17T23:30:21.258Z,25.65
2022-11-17T23:33:24.158Z,36.42
2022-11-17T23:36:27.271Z,34.83
2022-11-17T23:39:31.491Z,26.60
2022-11-17T23:42:38.703Z,29.77
2022-11-17T23:45:45.729Z,35.90
2022-11-17T23:48:49.203Z,29.88
2022-11-17T23:51:52.334Z,32.40
2022-11-17T23:54:55.750Z,34.78
2022-11-17T23:57:59.063Z,40.78
